createdAt,value
2019-01-02T00:00:41.011Z,4.20
2019-01-02T00:03:10.149Z,4.20
2019-01-02T00:05:39.896Z,4.30
2019-01-02T00:08:09.058Z,4.30
2019-01-02T00:10:38.672Z,4.30
2019-01-02T00:13:08.916Z,4.30
2019-01-02T00:15:38.444Z,4.30
2019-01-02T00:18:07.593Z,4.30
2019-01-02T00:20:36.732Z,4.30
2019-01-02T00:23:05.907Z,4.30
2019-01-02T00:25:35.058Z,4.30
2019-01-02T00:28:04.733Z,4.30
2019-01-02T00:30:33.954Z,4.30
2019-01-02T00:33:03.608Z,4.30
2019-01-02T00:35:32.741Z,4.30
2019-01-02T00:38:02.583Z,4.30
2019-01-02T00:40:31.734Z,4.30
2019-01-02T00:43:00.954Z,4.40
2019-01-02T00:45:30.060Z,4.50
2019-01-02T00:47:59.205Z,4.40
2019-01-02T00:50:28.365Z,4.40
2019-01-02T00:52:57.536Z,4.40
2019-01-02T00:55:26.757Z,4.40
2019-01-02T00:57:55.929Z,4.40
2019-01-02T01:00:27.483Z,4.40
2019-01-02T01:02:56.643Z,4.30
2019-01-02T01:05:25.780Z,4.30
2019-01-02T01:07:54.917Z,4.30
2019-01-02T01:10:24.126Z,4.30
2019-01-02T01:12:53.336Z,4.20
2019-01-02T01:15:22.517Z,4.20
2019-01-02T01:17:51.706Z,4.10
2019-01-02T01:20:21.283Z,4.10
2019-01-02T01:22:50.434Z,4.10
2019-01-02T01:25:20.134Z,4.10
2019-01-02T01:27:49.334Z,4.10
2019-01-02T01:30:19.055Z,4.10
2019-01-02T01:32:48.274Z,4.10
2019-01-02T01:35:18.332Z,4.10
2019-01-02T01:37:51.035Z,4.10
2019-01-02T01:40:20.224Z,4.10
2019-01-02T01:42:49.454Z,4.00
2019-01-02T01:45:19.171Z,4.00
2019-01-02T01:47:48.414Z,4.00
2019-01-02T01:50:18.054Z,4.00
2019-01-02T01:52:47.194Z,4.10
2019-01-02T01:55:16.356Z,4.10
2019-01-02T01:57:46.040Z,4.00
2019-01-02T02:00:17.793Z,4.00
2019-01-02T02:02:47.033Z,4.00
2019-01-02T02:05:16.626Z,4.00
2019-01-02T02:07:45.784Z,4.10
2019-01-02T02:10:17.031Z,4.10
2019-01-02T02:12:46.235Z,4.10
2019-01-02T02:15:15.484Z,4.10
2019-01-02T02:17:45.101Z,4.20
2019-01-02T02:20:14.702Z,4.10
2019-01-02T02:22:43.932Z,4.10
2019-01-02T02:25:20.687Z,4.00
2019-01-02T02:27:49.888Z,4.00
2019-01-02T02:30:19.434Z,4.00
2019-01-02T02:32:50.225Z,4.00
2019-01-02T02:35:20.212Z,4.00
2019-01-02T02:37:49.349Z,4.00
2019-01-02T02:40:18.500Z,3.90
2019-01-02T02:42:47.637Z,3.90
2019-01-02T02:45:17.457Z,3.90
2019-01-02T02:47:47.036Z,3.80
2019-01-02T02:50:17.123Z,3.80
2019-01-02T02:52:46.529Z,3.90
2019-01-02T02:55:19.071Z,3.90
2019-01-02T02:57:48.212Z,3.90
2019-01-02T03:00:17.466Z,3.80
2019-01-02T03:02:46.666Z,3.80
2019-01-02T03:05:16.230Z,3.90
2019-01-02T03:07:46.007Z,3.80
2019-01-02T03:10:16.647Z,3.90
2019-01-02T03:12:46.465Z,3.90
2019-01-02T03:15:16.204Z,3.90
2019-01-02T03:17:45.313Z,3.80
2019-01-02T03:20:15.451Z,3.80
2019-01-02T03:22:45.869Z,3.80
2019-01-02T03:25:15.604Z,3.80
2019-01-02T03:27:45.311Z,3.70
2019-01-02T03:30:17.052Z,3.70
2019-01-02T03:32:46.758Z,3.70
2019-01-02T03:35:16.474Z,3.60
2019-01-02T03:37:45.579Z,3.60
2019-01-02T03:40:14.721Z,3.60
2019-01-02T03:42:43.877Z,3.60
2019-01-02T03:45:15.584Z,3.60
2019-01-02T03:47:44.745Z,3.60
2019-01-02T03:50:15.963Z,3.50
2019-01-02T03:52:45.083Z,3.50
2019-01-02T03:55:14.247Z,3.40
2019-01-02T03:57:43.366Z,3.40
2019-01-02T04:00:14.909Z,3.40
2019-01-02T04:02:44.108Z,3.40
2019-01-02T04:05:14.531Z,3.40
2019-01-02T04:07:46.531Z,3.40
2019-01-02T04:10:15.693Z,3.30
2019-01-02T04:12:44.744Z,3.30
2019-01-02T04:15:14.029Z,3.20
2019-01-02T04:17:43.138Z,3.20
2019-01-02T04:20:12.281Z,3.20
2019-01-02T04:22:41.407Z,3.20
2019-01-02T04:25:10.656Z,3.20
2019-01-02T04:27:39.723Z,3.20
2019-01-02T04:30:11.681Z,3.20
2019-01-02T04:32:41.024Z,3.10
2019-01-02T04:35:10.171Z,3.10
2019-01-02T04:37:39.317Z,3.00
2019-01-02T04:40:10.658Z,3.00
2019-01-02T04:42:39.859Z,3.00
2019-01-02T04:45:10.399Z,2.90
2019-01-02T04:47:39.550Z,2.90
2019-01-02T04:50:10.843Z,2.80
2019-01-02T04:52:39.975Z,2.80
2019-01-02T04:55:09.158Z,2.80
2019-01-02T04:57:38.276Z,2.70
2019-01-02T05:00:11.130Z,2.60
2019-01-02T05:02:40.238Z,2.60
2019-01-02T05:05:09.387Z,2.50
2019-01-02T05:07:38.512Z,2.50
2019-01-02T05:10:09.245Z,2.50
2019-01-02T05:12:38.372Z,2.50
2019-01-02T05:15:08.467Z,2.40
2019-01-02T05:17:37.591Z,2.40
2019-01-02T05:20:08.535Z,2.40
2019-01-02T05:22:37.808Z,2.40
2019-01-02T05:25:07.732Z,2.50
2019-01-02T05:27:36.871Z,2.60
2019-01-02T05:30:09.293Z,2.50
2019-01-02T05:32:38.500Z,2.50
2019-01-02T05:35:08.624Z,2.50
2019-01-02T05:37:37.732Z,2.50
2019-01-02T05:40:10.126Z,2.40
2019-01-02T05:42:39.235Z,2.50
2019-01-02T05:45:08.535Z,2.50
2019-01-02T05:47:37.697Z,2.50
2019-01-02T05:50:07.281Z,2.50
2019-01-02T05:52:36.964Z,2.50
2019-01-02T05:55:06.163Z,2.50
2019-01-02T05:57:35.299Z,2.50
2019-01-02T06:00:05.176Z,2.50
2019-01-02T06:02:34.308Z,2.50
2019-01-02T06:05:03.652Z,2.50
2019-01-02T06:07:32.819Z,2.60
2019-01-02T06:10:01.962Z,2.60
2019-01-02T06:12:31.117Z,2.50
2019-01-02T06:15:00.312Z,2.50
2019-01-02T06:17:29.456Z,2.50
2019-01-02T06:19:58.632Z,2.60
2019-01-02T06:22:27.800Z,2.60
2019-01-02T06:24:56.984Z,2.60
2019-01-02T06:27:26.102Z,2.60
2019-01-02T06:29:55.257Z,2.70
2019-01-02T06:32:24.453Z,2.70
2019-01-02T06:34:53.611Z,2.70
2019-01-02T06:37:22.732Z,2.70
2019-01-02T06:39:51.907Z,2.80
2019-01-02T06:42:21.053Z,2.70
2019-01-02T06:44:50.181Z,2.70
2019-01-02T06:47:19.307Z,2.80
2019-01-02T06:49:48.493Z,2.80
2019-01-02T06:52:17.607Z,2.80
2019-01-02T06:54:46.777Z,2.90
2019-01-02T06:57:15.967Z,2.80
2019-01-02T06:59:45.217Z,2.90
2019-01-02T07:02:14.344Z,2.90
2019-01-02T07:04:43.664Z,2.80
2019-01-02T07:07:12.797Z,2.80
2019-01-02T07:09:41.989Z,2.90
2019-01-02T07:12:11.122Z,2.90
2019-01-02T07:14:40.269Z,2.90
2019-01-02T07:17:09.405Z,2.90
2019-01-02T07:19:38.550Z,2.90
2019-01-02T07:22:07.664Z,2.90
2019-01-02T07:24:36.850Z,2.90
2019-01-02T07:27:05.995Z,2.90
2019-01-02T07:29:35.199Z,3.00
2019-01-02T07:32:04.433Z,3.00
2019-01-02T07:35:19.310Z,3.00
2019-01-02T07:38:29.397Z,3.00
2019-01-02T07:41:26.024Z,3.00
2019-01-02T07:44:10.236Z,3.00
2019-01-02T07:47:17.485Z,3.00
2019-01-02T07:50:26.236Z,3.00
2019-01-02T07:53:07.379Z,3.00
2019-01-02T07:55:57.013Z,3.00
2019-01-02T07:58:44.947Z,2.90
2019-01-02T08:01:38.820Z,2.90
2019-01-02T08:04:57.115Z,2.90
2019-01-02T08:08:19.134Z,2.90
2019-01-02T08:11:29.547Z,2.90
2019-01-02T08:14:43.095Z,2.90
2019-01-02T08:17:22.111Z,2.80
2019-01-02T08:20:32.376Z,2.90
2019-01-02T08:23:31.675Z,2.80
2019-01-02T08:26:54.324Z,2.90
2019-01-02T08:29:52.580Z,2.80
2019-01-02T08:32:57.585Z,2.90
2019-01-02T08:35:50.179Z,2.90
2019-01-02T08:38:53.373Z,2.90
2019-01-02T08:42:27.672Z,3.00
2019-01-02T08:45:43.722Z,3.00
2019-01-02T08:48:48.119Z,3.10
2019-01-02T08:51:53.924Z,3.10
2019-01-02T08:55:15.857Z,3.30
2019-01-02T08:58:38.128Z,3.40
2019-01-02T09:01:44.139Z,3.60
2019-01-02T09:04:46.836Z,3.60
2019-01-02T09:08:00.458Z,3.60
2019-01-02T09:10:57.115Z,3.60
2019-01-02T09:14:05.826Z,3.50
2019-01-02T09:17:26.505Z,3.50
2019-01-02T09:20:38.466Z,3.50
2019-01-02T09:23:57.696Z,3.50
2019-01-02T09:27:08.535Z,3.50
2019-01-02T09:30:21.795Z,3.40
2019-01-02T09:33:20.928Z,3.50
2019-01-02T09:36:20.323Z,3.60
2019-01-02T09:39:42.626Z,3.60
2019-01-02T09:43:08.282Z,3.60
2019-01-02T09:46:11.763Z,3.70
2019-01-02T09:49:12.648Z,3.80
2019-01-02T09:52:17.638Z,4.00
2019-01-02T09:55:32.677Z,4.10
2019-01-02T09:58:24.558Z,4.20
2019-01-02T10:01:37.536Z,4.20
2019-01-02T10:04:45.839Z,4.20
2019-01-02T10:07:53.599Z,4.10
2019-01-02T10:11:08.969Z,4.10
2019-01-02T10:14:20.678Z,4.10
2019-01-02T10:17:39.165Z,4.10
2019-01-02T10:20:46.910Z,4.10
2019-01-02T10:23:32.468Z,4.10
2019-01-02T10:26:54.940Z,4.20
2019-01-02T10:29:40.644Z,4.20
2019-01-02T10:32:45.871Z,4.20
2019-01-02T10:36:03.803Z,4.20
2019-01-02T10:39:17.683Z,4.20
2019-01-02T10:42:37.209Z,4.20
2019-01-02T10:45:43.951Z,4.20
2019-01-02T10:49:03.161Z,4.20
2019-01-02T10:52:12.244Z,4.30
2019-01-02T10:55:23.964Z,4.20
2019-01-02T10:58:49.359Z,4.30
2019-01-02T11:01:54.088Z,4.40
2019-01-02T11:04:55.946Z,4.40
2019-01-02T11:07:40.284Z,4.50
2019-01-02T11:10:54.130Z,4.50
2019-01-02T11:14:02.757Z,4.50
2019-01-02T11:17:40.185Z,4.50
2019-01-02T11:20:52.073Z,4.50
2019-01-02T11:24:11.426Z,4.60
2019-01-02T11:27:39.522Z,4.50
2019-01-02T11:30:26.537Z,4.60
2019-01-02T11:33:48.911Z,4.60
2019-01-02T11:36:49.130Z,4.50
2019-01-02T11:39:52.277Z,4.60
2019-01-02T11:43:14.722Z,4.40
2019-01-02T11:45:43.876Z,4.40
2019-01-02T11:48:13.136Z,4.50
2019-01-02T11:50:42.249Z,4.50
2019-01-02T11:53:11.520Z,4.50
2019-01-02T11:55:40.681Z,4.60
2019-01-02T11:58:09.902Z,4.70
2019-01-02T12:00:39.046Z,4.80
2019-01-02T12:03:08.349Z,4.80
2019-01-02T12:05:37.561Z,4.70
2019-01-02T12:08:06.717Z,4.80
2019-01-02T12:10:35.880Z,4.70
2019-01-02T12:13:05.038Z,4.70
2019-01-02T12:15:34.271Z,4.80
2019-01-02T12:18:03.536Z,4.80
2019-01-02T12:20:32.716Z,4.80
2019-01-02T12:23:02.045Z,4.80
2019-01-02T12:25:31.212Z,4.80
2019-01-02T12:28:00.515Z,4.70
2019-01-02T12:30:29.763Z,4.70
2019-01-02T12:32:58.891Z,4.80
2019-01-02T12:35:28.064Z,4.80
2019-01-02T12:37:57.229Z,4.70
2019-01-02T12:40:26.391Z,4.70
2019-01-02T12:42:55.810Z,4.70
2019-01-02T12:45:24.906Z,4.70
2019-01-02T12:47:54.073Z,4.70
2019-01-02T12:50:23.233Z,4.60
2019-01-02T12:52:52.381Z,4.60
2019-01-02T12:55:21.510Z,4.60
2019-01-02T12:57:50.658Z,4.70
2019-01-02T13:00:19.804Z,4.70
2019-01-02T13:03:18.929Z,4.70
2019-01-02T13:06:24.058Z,4.80
2019-01-02T13:09:32.281Z,4.80
2019-01-02T13:12:38.161Z,4.80
2019-01-02T13:15:42.080Z,4.90
2019-01-02T13:18:47.114Z,4.90
2019-01-02T13:21:44.811Z,5.20
2019-01-02T13:24:42.051Z,5.70
2019-01-02T13:28:01.156Z,6.00
2019-01-02T13:31:20.684Z,6.00
2019-01-02T13:34:23.225Z,5.80
2019-01-02T13:37:08.981Z,5.60
2019-01-02T13:40:31.328Z,5.50
2019-01-02T13:43:49.681Z,5.40
2019-01-02T13:47:14.980Z,5.30
2019-01-02T13:50:24.294Z,5.20
2019-01-02T13:52:53.906Z,5.10
2019-01-02T13:55:22.993Z,5.20
2019-01-02T13:57:52.209Z,5.20
2019-01-02T14:00:21.386Z,5.20
2019-01-02T14:02:50.611Z,5.20
2019-01-02T14:05:22.463Z,5.20
2019-01-02T14:07:51.602Z,5.30
2019-01-02T14:10:20.794Z,5.30
2019-01-02T14:12:49.931Z,5.30
2019-01-02T14:15:19.116Z,5.30
2019-01-02T14:17:48.239Z,5.40
2019-01-02T14:20:17.389Z,5.40
2019-01-02T14:22:46.516Z,5.60
2019-01-02T14:25:15.636Z,5.90
2019-01-02T14:27:44.790Z,6.10
2019-01-02T14:30:14.032Z,6.30
2019-01-02T14:32:43.165Z,6.20
2019-01-02T14:35:12.304Z,6.20
2019-01-02T14:37:41.440Z,6.10
2019-01-02T14:40:10.572Z,6.00
2019-01-02T14:42:39.743Z,6.00
2019-01-02T14:45:08.981Z,5.90
2019-01-02T14:47:38.167Z,5.80
2019-01-02T14:50:08.009Z,5.70
2019-01-02T14:52:43.130Z,5.60
2019-01-02T14:55:08.010Z,5.70
2019-01-02T14:57:37.156Z,5.80
2019-01-02T15:00:10.229Z,5.90
2019-01-02T15:02:39.450Z,5.70
2019-01-02T15:05:08.582Z,5.70
2019-01-02T15:07:37.742Z,5.60
2019-01-02T15:10:10.522Z,5.30
2019-01-02T15:12:39.693Z,5.30
2019-01-02T15:15:10.305Z,5.20
2019-01-02T15:17:39.452Z,5.10
2019-01-02T15:20:10.430Z,5.00
2019-01-02T15:22:39.680Z,5.00
2019-01-02T15:25:09.640Z,4.80
2019-01-02T15:27:38.778Z,4.80
2019-01-02T15:30:11.252Z,4.70
2019-01-02T15:32:40.439Z,4.90
2019-01-02T15:35:09.570Z,5.10
2019-01-02T15:37:38.731Z,5.20
2019-01-02T15:40:10.317Z,5.10
2019-01-02T15:42:39.475Z,5.00
2019-01-02T15:45:08.834Z,4.90
2019-01-02T15:47:38.244Z,4.70
2019-01-02T15:50:08.686Z,4.60
2019-01-02T15:52:37.852Z,4.60
2019-01-02T15:55:07.338Z,4.50
2019-01-02T15:57:36.501Z,4.40
2019-01-02T16:00:08.174Z,4.30
2019-01-02T16:02:37.347Z,4.10
2019-01-02T16:05:06.570Z,3.90
2019-01-02T16:07:35.775Z,3.80
2019-01-02T16:10:05.641Z,3.70
2019-01-02T16:12:34.770Z,3.60
2019-01-02T16:15:03.989Z,3.50
2019-01-02T16:17:33.109Z,3.40
2019-01-02T16:20:02.254Z,3.40
2019-01-02T16:22:31.366Z,3.40
2019-01-02T16:25:00.536Z,3.40
2019-01-02T16:27:29.713Z,3.40
2019-01-02T16:29:58.893Z,3.40
2019-01-02T16:32:28.034Z,3.40
2019-01-02T16:34:57.213Z,3.30
2019-01-02T16:37:26.401Z,3.20
2019-01-02T16:39:55.561Z,3.10
2019-01-02T16:42:24.734Z,3.20
2019-01-02T16:44:53.894Z,3.10
2019-01-02T16:47:23.026Z,3.10
2019-01-02T16:49:52.221Z,3.00
2019-01-02T16:52:21.341Z,3.00
2019-01-02T16:54:50.566Z,3.00
2019-01-02T16:57:19.727Z,3.00
2019-01-02T16:59:50.020Z,3.10
2019-01-02T17:02:19.375Z,3.10
2019-01-02T17:04:49.142Z,3.10
2019-01-02T17:07:18.316Z,3.10
2019-01-02T17:09:47.484Z,3.10
2019-01-02T17:12:16.642Z,3.00
2019-01-02T17:14:45.847Z,3.00
2019-01-02T17:17:14.997Z,3.00
2019-01-02T17:19:44.283Z,3.00
2019-01-02T17:22:13.468Z,3.00
2019-01-02T17:24:42.679Z,3.00
2019-01-02T17:27:11.837Z,3.00
2019-01-02T17:29:40.987Z,3.00
2019-01-02T17:32:10.117Z,3.10
2019-01-02T17:34:39.267Z,3.10
2019-01-02T17:37:08.382Z,3.10
2019-01-02T17:39:37.610Z,3.10
2019-01-02T17:42:06.739Z,3.00
2019-01-02T17:44:35.920Z,2.90
2019-01-02T17:47:05.138Z,2.90
2019-01-02T17:49:34.320Z,2.80
2019-01-02T17:52:03.486Z,2.80
2019-01-02T17:54:32.623Z,2.70
2019-01-02T17:57:01.790Z,2.70
2019-01-02T17:59:30.928Z,2.70
2019-01-02T18:02:00.177Z,2.60
2019-01-02T18:04:29.351Z,2.60
2019-01-02T18:06:58.526Z,2.60
2019-01-02T18:09:27.681Z,2.60
2019-01-02T18:11:56.841Z,2.50
2019-01-02T18:14:25.979Z,2.50
2019-01-02T18:16:55.211Z,2.50
2019-01-02T18:19:24.409Z,2.40
2019-01-02T18:21:53.567Z,2.40
2019-01-02T18:24:22.773Z,2.40
2019-01-02T18:26:52.125Z,2.30
2019-01-02T18:29:21.279Z,2.30
2019-01-02T18:31:50.451Z,2.30
2019-01-02T18:34:19.591Z,2.30
2019-01-02T18:36:48.770Z,2.20
2019-01-02T18:39:18.004Z,2.20
2019-01-02T18:41:47.193Z,2.20
2019-01-02T18:44:20.344Z,2.10
2019-01-02T18:46:47.245Z,2.10
2019-01-02T18:49:16.430Z,2.10
2019-01-02T18:51:45.863Z,2.10
2019-01-02T18:54:15.072Z,2.00
2019-01-02T18:56:44.297Z,2.00
2019-01-02T18:59:13.581Z,2.00
2019-01-02T19:01:42.777Z,2.00
2019-01-02T19:04:12.067Z,2.00
2019-01-02T19:06:41.464Z,2.00
2019-01-02T19:09:10.773Z,2.00
2019-01-02T19:11:40.164Z,1.90
2019-01-02T19:14:09.433Z,1.90
2019-01-02T19:16:38.655Z,1.90
2019-01-02T19:19:07.804Z,1.90
2019-01-02T19:21:37.093Z,1.80
2019-01-02T19:24:06.356Z,1.80
2019-01-02T19:26:35.515Z,1.50
2019-01-02T19:29:04.803Z,1.30
2019-01-02T19:31:33.966Z,1.20
2019-01-02T19:34:03.473Z,1.00
2019-01-02T19:36:32.743Z,1.00
2019-01-02T19:39:01.925Z,0.90
2019-01-02T19:41:31.294Z,1.00
2019-01-02T19:44:00.609Z,0.90
2019-01-02T19:46:29.956Z,0.90
2019-01-02T19:48:59.146Z,0.90
2019-01-02T19:51:28.437Z,0.90
2019-01-02T19:53:57.718Z,0.90
2019-01-02T19:56:26.968Z,1.00
2019-01-02T19:58:56.256Z,1.00
2019-01-02T20:01:25.538Z,1.00
2019-01-02T20:03:54.847Z,1.00
2019-01-02T20:06:24.195Z,1.30
2019-01-02T20:08:53.711Z,1.60
2019-01-02T20:11:23.130Z,1.70
2019-01-02T20:13:54.271Z,1.70
2019-01-02T20:16:23.490Z,1.70
2019-01-02T20:18:53.084Z,1.70
2019-01-02T20:21:22.322Z,1.60
2019-01-02T20:23:51.567Z,1.60
2019-01-02T20:26:20.764Z,1.60
2019-01-02T20:28:49.962Z,1.40
2019-01-02T20:31:19.217Z,0.80
2019-01-02T20:33:48.401Z,0.50
2019-01-02T20:36:17.643Z,0.30
2019-01-02T20:38:46.989Z,0.10
2019-01-02T20:41:16.262Z,0.10
2019-01-02T20:43:45.485Z,0.10
2019-01-02T20:46:14.616Z,0.20
2019-01-02T20:48:43.762Z,0.30
2019-01-02T20:51:12.914Z,0.30
2019-01-02T20:53:42.188Z,0.30
2019-01-02T20:56:11.439Z,0.40
2019-01-02T20:58:40.670Z,0.50
2019-01-02T21:01:09.868Z,0.60
2019-01-02T21:03:39.025Z,0.60
2019-01-02T21:06:08.180Z,0.60
2019-01-02T21:08:37.377Z,0.60
2019-01-02T21:11:06.605Z,0.60
2019-01-02T21:13:35.813Z,0.60
2019-01-02T21:16:04.997Z,0.60
2019-01-02T21:18:34.128Z,0.60
2019-01-02T21:21:03.303Z,0.60
2019-01-02T21:23:32.456Z,0.60
2019-01-02T21:26:01.638Z,0.60
2019-01-02T21:28:30.791Z,0.50
2019-01-02T21:31:00.080Z,0.50
2019-01-02T21:33:29.212Z,0.40
2019-01-02T21:35:58.384Z,0.40
2019-01-02T21:38:27.709Z,0.30
2019-01-02T21:40:56.833Z,0.30
2019-01-02T21:43:25.969Z,0.20
2019-01-02T21:45:55.157Z,-0.10
2019-01-02T21:48:24.332Z,-0.10
2019-01-02T21:50:53.514Z,-0.20
2019-01-02T21:53:22.669Z,-0.20
2019-01-02T21:55:51.838Z,-0.20
2019-01-02T21:58:21.006Z,-0.20
2019-01-02T22:00:50.189Z,-0.20
2019-01-02T22:03:19.344Z,-0.20
2019-01-02T22:05:49.181Z,-0.40
2019-01-02T22:08:18.691Z,-0.40
2019-01-02T22:10:47.847Z,-0.60
2019-01-02T22:13:16.971Z,-0.80
2019-01-02T22:15:46.130Z,-0.80
2019-01-02T22:18:15.279Z,-0.90
2019-01-02T22:20:44.453Z,-1.00
2019-01-02T22:23:13.621Z,-0.90
2019-01-02T22:25:42.757Z,-0.90
2019-01-02T22:28:12.060Z,-0.90
2019-01-02T22:30:41.258Z,-0.80
2019-01-02T22:33:10.452Z,-0.80
2019-01-02T22:35:39.622Z,-0.90
2019-01-02T22:38:08.843Z,-0.80
2019-01-02T22:40:38.024Z,-0.80
2019-01-02T22:43:07.331Z,-0.80
2019-01-02T22:45:36.548Z,-0.80
2019-01-02T22:48:05.685Z,-0.80
2019-01-02T22:50:34.839Z,-0.80
2019-01-02T22:53:04.046Z,-0.70
2019-01-02T22:55:33.211Z,-0.70
2019-01-02T22:58:02.405Z,-0.70
2019-01-02T23:00:49.116Z,-0.70
2019-01-02T23:03:36.224Z,-0.70
2019-01-02T23:06:23.243Z,-0.70
2019-01-02T23:09:10.442Z,-0.70
2019-01-02T23:12:01.619Z,-0.70
2019-01-02T23:14:59.984Z,-0.60
2019-01-02T23:17:47.028Z,-0.60
2019-01-02T23:20:41.490Z,-0.60
2019-01-02T23:23:28.218Z,-0.60
2019-01-02T23:26:15.281Z,-0.70
2019-01-02T23:29:02.066Z,-0.70
2019-01-02T23:31:50.286Z,-0.80
2019-01-02T23:34:41.342Z,-0.80
2019-01-02T23:37:29.799Z,-1.00
2019-01-02T23:40:15.100Z,-1.00
2019-01-02T23:42:57.907Z,-1.00
2019-01-02T23:45:44.640Z,-1.00
2019-01-02T23:48:35.999Z,-1.00
2019-01-02T23:51:27.419Z,-1.00
2019-01-02T23:54:14.296Z,-1.00
2019-01-02T23:57:01.235Z,-1.00
2019-01-02T23:59:41.544Z,-1.10
